TimeADT,TemperatureF,Dew PointF,Humidity,Sea Level PressureIn,VisibilityMPH,Wind Direction,Wind SpeedMPH,Gust SpeedMPH,PrecipitationIn,Events,Conditions,WindDirDegrees,DateUTC
12:00 AM,59.9,53.6,80,29.70,-9999.0,ESE,32.2,40.3,N/A,,Unknown,110,2012-11-01 03:00:00
12:20 AM,60.3,54.0,80,-9999,-9999.0,ESE,27.6,39.1,N/A,,Unknown,110,2012-11-01 03:20:00
12:40 AM,60.3,54.9,82,-9999,-9999.0,ESE,24.2,38.0,N/A,,Unknown,120,2012-11-01 03:40:00
1:00 AM,60.3,55.0,83,29.69,-9999.0,ESE,32.2,41.4,N/A,,Unknown,120,2012-11-01 04:00:00
1:20 AM,60.8,55.0,81,-9999,-9999.0,ESE,29.9,40.3,N/A,,Unknown,120,2012-11-01 04:20:00
1:40 AM,60.8,54.9,81,-9999,-9999.0,SE,20.7,32.2,N/A,,Unknown,130,2012-11-01 04:40:00
2:00 AM,61.0,55.0,81,29.67,-9999.0,SE,29.9,-,N/A,,Unknown,130,2012-11-01 05:00:00
2:20 AM,60.3,55.2,83,-9999,-9999.0,ESE,24.2,41.4,N/A,,Unknown,120,2012-11-01 05:20:00
2:40 AM,60.8,55.6,83,-9999,-9999.0,SE,24.2,39.1,N/A,,Unknown,130,2012-11-01 05:40:00
3:00 AM,61.0,55.6,82,29.66,-9999.0,SE,28.8,-,N/A,,Unknown,130,2012-11-01 06:00:00
3:20 AM,60.8,55.9,84,-9999,-9999.0,SE,20.7,31.1,N/A,,Unknown,130,2012-11-01 06:20:00
3:40 AM,61.2,56.5,85,-9999,-9999.0,SE,17.3,27.6,N/A,,Unknown,130,2012-11-01 06:40:00
4:00 AM,61.9,56.5,82,29.64,-9999.0,SE,23.0,34.5,N/A,,Unknown,130,2012-11-01 07:00:00
4:20 AM,61.9,56.7,83,-9999,-9999.0,SE,15.0,25.3,N/A,,Unknown,130,2012-11-01 07:20:00
4:40 AM,61.3,57.0,86,-9999,-9999.0,SE,19.6,29.9,N/A,,Unknown,130,2012-11-01 07:40:00
5:00 AM,61.5,56.7,84,29.63,-9999.0,SE,23.0,32.2,N/A,,Unknown,130,2012-11-01 08:00:00
5:20 AM,61.7,56.8,84,-9999,-9999.0,ESE,24.2,33.4,N/A,,Unknown,120,2012-11-01 08:20:00
5:40 AM,61.9,57.0,84,-9999,-9999.0,SE,20.7,32.2,N/A,,Unknown,130,2012-11-01 08:40:00
6:00 AM,61.9,57.4,85,29.62,-9999.0,SE,24.2,-,N/A,,Unknown,130,2012-11-01 09:00:00
6:20 AM,62.1,57.2,84,-9999,-9999.0,SE,19.6,26.5,N/A,,Unknown,130,2012-11-01 09:20:00
6:40 AM,62.4,57.4,84,-9999,-9999.0,SE,18.4,28.8,N/A,,Unknown,130,2012-11-01 09:40:00
7:00 AM,62.4,57.4,84,29.61,-9999.0,SE,20.7,29.9,N/A,,Unknown,130,2012-11-01 10:00:00
7:20 AM,62.6,57.4,83,-9999,-9999.0,SE,20.7,29.9,N/A,,Unknown,130,2012-11-01 10:20:00
7:40 AM,62.6,57.4,83,-9999,-9999.0,SE,20.7,27.6,N/A,,Unknown,130,2012-11-01 10:40:00
8:00 AM,62.1,57.0,84,29.61,-9999.0,SE,20.7,-,N/A,,Unknown,130,2012-11-01 11:00:00
8:20 AM,61.7,56.8,84,-9999,-9999.0,SSE,11.5,20.7,N/A,,Unknown,150,2012-11-01 11:20:00
8:40 AM,62.4,57.2,83,-9999,-9999.0,South,9.2,-,N/A,,Unknown,190,2012-11-01 11:40:00
9:00 AM,63.7,57.9,81,29.63,-9999.0,South,18.4,-,N/A,,Unknown,190,2012-11-01 12:00:00
9:20 AM,64.2,58.1,80,-9999,-9999.0,SSE,5.8,-,N/A,,Unknown,160,2012-11-01 12:20:00
9:40 AM,64.2,58.3,81,-9999,-9999.0,South,8.1,-,N/A,,Unknown,180,2012-11-01 12:40:00
10:00 AM,65.3,58.5,78,29.64,-9999.0,South,8.1,-,N/A,,Unknown,180,2012-11-01 13:00:00
10:20 AM,66.4,59.0,77,-9999,-9999.0,South,4.6,-,N/A,,Unknown,190,2012-11-01 13:20:00
10:40 AM,61.0,55.4,82,-9999,-9999.0,SW,10.4,-,N/A,,Unknown,220,2012-11-01 13:40:00
11:00 AM,59.9,55.8,86,29.65,-9999.0,SW,11.5,-,N/A,,Unknown,220,2012-11-01 14:00:00
11:20 AM,65.5,57.7,76,-9999,-9999.0,South,9.2,-,N/A,,Unknown,190,2012-11-01 14:20:00
11:40 AM,63.3,57.6,81,-9999,-9999.0,SSW,10.4,-,N/A,,Unknown,210,2012-11-01 14:40:00
12:00 PM,67.3,58.3,73,29.65,-9999.0,South,11.5,-,N/A,,Unknown,190,2012-11-01 15:00:00
12:20 PM,67.1,58.1,73,-9999,-9999.0,South,6.9,-,N/A,,Unknown,190,2012-11-01 15:20:00
12:40 PM,68.5,57.2,67,-9999,-9999.0,South,9.2,-,N/A,,Unknown,190,2012-11-01 15:40:00
1:00 PM,69.4,57.0,65,29.62,-9999.0,South,10.4,-,N/A,,Unknown,180,2012-11-01 16:00:00
1:20 PM,69.4,56.8,64,-9999,-9999.0,South,8.1,-,N/A,,Unknown,180,2012-11-01 16:20:00
1:40 PM,69.8,56.5,63,-9999,-9999.0,SSW,8.1,-,N/A,,Unknown,210,2012-11-01 16:40:00
2:00 PM,68.0,56.3,66,29.61,-9999.0,SW,9.2,-,N/A,,Unknown,230,2012-11-01 17:00:00
2:20 PM,65.5,55.2,69,-9999,-9999.0,WSW,9.2,-,N/A,,Unknown,240,2012-11-01 17:20:00
2:40 PM,63.9,55.6,74,-9999,-9999.0,West,6.9,-,N/A,,Unknown,260,2012-11-01 17:40:00
3:00 PM,66.0,57.6,74,29.60,-9999.0,WSW,9.2,-,N/A,,Unknown,240,2012-11-01 18:00:00
3:20 PM,64.6,55.4,72,-9999,-9999.0,North,1.2,-,N/A,,Unknown,360,2012-11-01 18:20:00
3:40 PM,63.3,55.0,74,-9999,-9999.0,NW,3.5,-,N/A,,Unknown,320,2012-11-01 18:40:00
4:00 PM,63.7,55.4,74,29.60,-9999.0,West,3.5,-,N/A,,Unknown,270,2012-11-01 19:00:00
4:20 PM,61.2,55.0,80,-9999,-9999.0,NNE,2.3,-,N/A,,Unknown,20,2012-11-01 19:20:00
4:40 PM,60.8,54.9,81,-9999,-9999.0,NNE,2.3,-,N/A,,Unknown,20,2012-11-01 19:40:00
5:00 PM,59.2,53.8,82,29.60,-9999.0,NNW,2.3,-,N/A,,Unknown,340,2012-11-01 20:00:00
5:20 PM,58.8,54.0,84,-9999,-9999.0,West,1.2,-,N/A,,Unknown,270,2012-11-01 20:20:00
5:40 PM,58.5,54.3,86,-9999,-9999.0,NNW,2.3,-,N/A,,Unknown,340,2012-11-01 20:40:00
6:00 PM,58.3,54.9,88,29.57,-9999.0,North,5.8,-,N/A,,Unknown,10,2012-11-01 21:00:00
6:20 PM,57.9,54.9,90,-9999,-9999.0,North,5.8,-,N/A,,Unknown,10,2012-11-01 21:20:00
6:40 PM,58.8,55.9,90,-9999,-9999.0,North,4.6,-,N/A,,Unknown,10,2012-11-01 21:40:00
7:00 PM,61.9,58.5,89,29.56,-9999.0,ESE,5.8,-,N/A,,Unknown,120,2012-11-01 22:00:00
7:20 PM,62.4,58.6,87,-9999,-9999.0,SSE,9.2,-,N/A,,Unknown,150,2012-11-01 22:20:00
7:40 PM,62.2,58.1,86,-9999,-9999.0,SE,9.2,-,N/A,,Unknown,140,2012-11-01 22:40:00
8:00 PM,62.4,57.9,85,29.54,-9999.0,SE,10.4,18.4,N/A,,Unknown,130,2012-11-01 23:00:00
8:20 PM,62.8,57.6,83,-9999,-9999.0,ESE,18.4,26.5,N/A,,Unknown,120,2012-11-01 23:20:00
8:40 PM,62.6,57.2,82,-9999,-9999.0,SE,17.3,27.6,N/A,,Unknown,130,2012-11-01 23:40:00
9:00 PM,62.4,57.0,82,29.53,-9999.0,SE,18.4,27.6,N/A,,Unknown,130,2012-11-02 00:00:00
9:20 PM,61.9,56.7,83,-9999,-9999.0,SE,11.5,19.6,N/A,,Unknown,140,2012-11-02 00:20:00
9:40 PM,61.7,56.3,82,-9999,-9999.0,SSE,9.2,17.3,N/A,,Unknown,160,2012-11-02 00:40:00
10:00 PM,61.0,56.1,84,29.52,-9999.0,SW,16.1,-,N/A,,Unknown,220,2012-11-02 01:00:00
10:20 PM,60.1,55.2,84,-9999,-9999.0,SW,9.2,-,N/A,,Unknown,220,2012-11-02 01:20:00
10:40 PM,60.3,56.3,87,-9999,-9999.0,SW,8.1,-,N/A,,Unknown,220,2012-11-02 01:40:00
11:00 PM,61.0,56.3,85,29.50,-9999.0,SSE,9.2,-,N/A,,Unknown,160,2012-11-02 02:00:00
11:20 PM,61.2,56.7,85,-9999,-9999.0,SSW,8.1,-,N/A,,Unknown,200,2012-11-02 02:20:00
11:40 PM,59.9,56.5,88,-9999,-9999.0,SSW,9.2,-,N/A,,Unknown,210,2012-11-02 02:40:00